首页
METAR-TAF:

METAR-TAF

机场 :

Dinard, 法国

纬度: 48-35N, 经度: 002-04W, 海拔: 65米

当前天气观测

该预报发布于17分钟前的11:00 UTC
风速13节,风向西南
温度 19°C
湿度 60%
气压 1020 hPa
能见度10公里或以上
少量云层高于3300英尺
阴天层高于5200英尺

METAR: LFRD 161100Z AUTO 22013KT 9999 FEW033 OVC052 19/11 Q1020 NOSIG

时间: 13:17 (11:17 UTC)

预报

该预报发布于6小时和17分钟前的05:00 UTC
预报有效从16日的 06点(UTC)到 17日的 06点(UTC)
风速10节,风向西南
能见度10公里或以上
多云层高于3000英尺
短暂存在
从 16日的 06点(UTC)到 16日的 09点(UTC)
能見度: 4000
多云层高于1200英尺
雨, 毛毛雨
几率 40% :
短暂存在
从 16日的 06点(UTC)到 16日的 08点(UTC)
多云层高于800英尺
几率 30% :
短暂存在
从 16日的 08点(UTC)到 16日的 11点(UTC)
能見度: 5000
阵雨
短暂存在
从 17日的 02点(UTC)到 17日的 06点(UTC)
能見度: 3000
轻雾

TAF: LFRD 160500Z 1606/1706 22010KT 9999 BKN030 TEMPO 1606/1609 4000 RADZ BKN012 PROB40 TEMPO 1606/1608 BKN008 PROB30 TEMPO 1608/1611 5000 SHRA TEMPO 1702/1706 3000 BR NSC

超过4000个机场的气象观测和天气预报(METAR&TAF报告)。

可查询的气象台以黄色和红色小点在地图上表示。

将鼠标移到小点上方,可查看气象台名称。

然后点击查看天气观测和预报。

如需切换地图:点击带黑十字的绿色按钮放大地图;点击带横线的绿色按钮缩小地图;或者点击绿色箭头查看邻近地区的地图。


METAR-TAF: